sensor_id;sensor_type;location;lat;lon;timestamp;P1;durP1;ratioP1;P2;durP2;ratioP2
78783;SDS011;68127;51.050;14.084;2023-04-21T00:01:44;21.00;;;10.85;;
78783;SDS011;68127;51.050;14.084;2023-04-21T00:04:10;26.70;;;11.40;;
78783;SDS011;68127;51.050;14.084;2023-04-21T00:06:38;22.20;;;12.38;;
78783;SDS011;68127;51.050;14.084;2023-04-21T00:09:05;21.17;;;10.77;;
78783;SDS011;68127;51.050;14.084;2023-04-21T00:11:31;19.40;;;11.30;;
78783;SDS011;68127;51.050;14.084;2023-04-21T00:13:56;22.23;;;12.25;;
78783;SDS011;68127;51.050;14.084;2023-04-21T00:16:22;21.35;;;10.52;;
78783;SDS011;68127;51.050;14.084;2023-04-21T00:18:47;24.08;;;10.10;;
78783;SDS011;68127;51.050;14.084;2023-04-21T00:21:12;21.48;;;10.38;;
78783;SDS011;68127;51.050;14.084;2023-04-21T00:23:38;20.05;;;9.95;;
78783;SDS011;68127;51.050;14.084;2023-04-21T00:26:03;16.65;;;8.48;;
78783;SDS011;68127;51.050;14.084;2023-04-21T00:28:28;18.27;;;9.18;;
78783;SDS011;68127;51.050;14.084;2023-04-21T00:30:54;16.80;;;9.10;;
78783;SDS011;68127;51.050;14.084;2023-04-21T00:33:19;19.08;;;9.20;;
78783;SDS011;68127;51.050;14.084;2023-04-21T00:35:44;19.40;;;9.15;;
78783;SDS011;68127;51.050;14.084;2023-04-21T00:38:10;14.45;;;8.38;;
78783;SDS011;68127;51.050;14.084;2023-04-21T00:40:35;16.23;;;8.73;;
78783;SDS011;68127;51.050;14.084;2023-04-21T00:43:00;15.93;;;8.55;;
78783;SDS011;68127;51.050;14.084;2023-04-21T00:45:26;17.95;;;8.20;;
78783;SDS011;68127;51.050;14.084;2023-04-21T00:47:51;15.23;;;9.13;;
78783;SDS011;68127;51.050;14.084;2023-04-21T00:50:16;18.60;;;8.98;;
78783;SDS011;68127;51.050;14.084;2023-04-21T00:52:42;14.65;;;7.78;;
78783;SDS011;68127;51.050;14.084;2023-04-21T00:55:08;13.20;;;7.80;;
78783;SDS011;68127;51.050;14.084;2023-04-21T00:57:34;14.85;;;8.27;;
78783;SDS011;68127;51.050;14.084;2023-04-21T01:00:01;20.23;;;8.27;;
78783;SDS011;68127;51.050;14.084;2023-04-21T01:02:27;17.52;;;8.63;;
78783;SDS011;68127;51.050;14.084;2023-04-21T01:04:52;18.65;;;9.25;;
78783;SDS011;68127;51.050;14.084;2023-04-21T01:07:17;15.27;;;8.20;;
78783;SDS011;68127;51.050;14.084;2023-04-21T01:09:43;20.02;;;7.95;;
78783;SDS011;68127;51.050;14.084;2023-04-21T01:12:09;17.17;;;9.35;;
78783;SDS011;68127;51.050;14.084;2023-04-21T01:14:36;21.23;;;8.50;;
78783;SDS011;68127;51.050;14.084;2023-04-21T01:17:01;12.50;;;7.60;;
78783;SDS011;68127;51.050;14.084;2023-04-21T01:19:32;15.85;;;7.78;;
78783;SDS011;68127;51.050;14.084;2023-04-21T01:21:59;18.00;;;7.78;;
78783;SDS011;68127;51.050;14.084;2023-04-21T01:24:34;11.38;;;6.68;;
78783;SDS011;68127;51.050;14.084;2023-04-21T01:27:01;14.75;;;7.72;;
78783;SDS011;68127;51.050;14.084;2023-04-21T01:29:26;13.75;;;7.32;;
78783;SDS011;68127;51.050;14.084;2023-04-21T01:31:51;9.65;;;6.20;;
78783;SDS011;68127;51.050;14.084;2023-04-21T01:34:17;13.23;;;6.53;;
78783;SDS011;68127;51.050;14.084;2023-04-21T01:36:42;15.30;;;7.03;;
78783;SDS011;68127;51.050;14.084;2023-04-21T01:39:07;12.23;;;6.00;;
78783;SDS011;68127;51.050;14.084;2023-04-21T01:41:32;12.35;;;6.18;;
78783;SDS011;68127;51.050;14.084;2023-04-21T01:43:58;13.38;;;6.63;;
78783;SDS011;68127;51.050;14.084;2023-04-21T01:46:23;12.60;;;6.97;;
78783;SDS011;68127;51.050;14.084;2023-04-21T01:48:48;14.43;;;6.05;;
78783;SDS011;68127;51.050;14.084;2023-04-21T01:51:13;15.45;;;7.03;;
78783;SDS011;68127;51.050;14.084;2023-04-21T01:53:39;15.10;;;6.78;;
78783;SDS011;68127;51.050;14.084;2023-04-21T01:56:04;10.82;;;5.90;;
78783;SDS011;68127;51.050;14.084;2023-04-21T01:58:30;12.65;;;6.63;;
78783;SDS011;68127;51.050;14.084;2023-04-21T02:00:55;13.85;;;6.55;;
78783;SDS011;68127;51.050;14.084;2023-04-21T02:03:20;15.00;;;6.85;;
78783;SDS011;68127;51.050;14.084;2023-04-21T02:05:46;12.40;;;6.57;;
78783;SDS011;68127;51.050;14.084;2023-04-21T02:08:11;13.85;;;7.13;;
78783;SDS011;68127;51.050;14.084;2023-04-21T02:10:36;13.20;;;7.05;;
78783;SDS011;68127;51.050;14.084;2023-04-21T02:13:01;19.70;;;7.97;;
78783;SDS011;68127;51.050;14.084;2023-04-21T02:15:27;13.23;;;7.40;;
78783;SDS011;68127;51.050;14.084;2023-04-21T02:17:52;11.90;;;6.95;;
78783;SDS011;68127;51.050;14.084;2023-04-21T02:20:17;13.27;;;6.80;;
78783;SDS011;68127;51.050;14.084;2023-04-21T02:22:43;21.02;;;8.43;;
78783;SDS011;68127;51.050;14.084;2023-04-21T02:25:08;13.63;;;6.90;;
78783;SDS011;68127;51.050;14.084;2023-04-21T02:27:33;14.00;;;6.28;;
78783;SDS011;68127;51.050;14.084;2023-04-21T02:29:58;17.33;;;6.80;;
78783;SDS011;68127;51.050;14.084;2023-04-21T02:32:24;11.77;;;6.30;;
78783;SDS011;68127;51.050;14.084;2023-04-21T02:34:49;15.20;;;5.82;;
78783;SDS011;68127;51.050;14.084;2023-04-21T02:37:15;10.63;;;6.30;;
78783;SDS011;68127;51.050;14.084;2023-04-21T02:39:40;13.43;;;6.18;;
78783;SDS011;68127;51.050;14.084;2023-04-21T02:42:07;12.30;;;6.20;;
78783;SDS011;68127;51.050;14.084;2023-04-21T02:44:32;16.73;;;5.50;;
78783;SDS011;68127;51.050;14.084;2023-04-21T02:46:57;10.27;;;5.55;;
78783;SDS011;68127;51.050;14.084;2023-04-21T02:49:23;14.07;;;5.70;;
78783;SDS011;68127;51.050;14.084;2023-04-21T02:51:48;14.75;;;5.95;;
78783;SDS011;68127;51.050;14.084;2023-04-21T02:54:13;11.02;;;5.05;;
78783;SDS011;68127;51.050;14.084;2023-04-21T02:56:38;14.90;;;5.35;;
78783;SDS011;68127;51.050;14.084;2023-04-21T02:59:04;19.35;;;5.63;;
78783;SDS011;68127;51.050;14.084;2023-04-21T03:01:29;12.43;;;5.07;;
78783;SDS011;68127;51.050;14.084;2023-04-21T03:03:54;13.90;;;5.20;;
78783;SDS011;68127;51.050;14.084;2023-04-21T03:06:20;20.88;;;6.35;;
78783;SDS011;68127;51.050;14.084;2023-04-21T03:08:45;11.50;;;5.40;;
78783;SDS011;68127;51.050;14.084;2023-04-21T03:11:10;12.75;;;5.05;;
78783;SDS011;68127;51.050;14.084;2023-04-21T03:13:36;12.50;;;5.22;;
78783;SDS011;68127;51.050;14.084;2023-04-21T03:16:01;9.73;;;5.13;;
78783;SDS011;68127;51.050;14.084;2023-04-21T03:18:26;11.38;;;4.60;;
78783;SDS011;68127;51.050;14.084;2023-04-21T03:20:52;10.07;;;4.72;;
78783;SDS011;68127;51.050;14.084;2023-04-21T03:23:23;11.70;;;4.75;;
78783;SDS011;68127;51.050;14.084;2023-04-21T03:25:48;10.65;;;4.93;;
78783;SDS011;68127;51.050;14.084;2023-04-21T03:28:14;12.20;;;5.80;;
78783;SDS011;68127;51.050;14.084;2023-04-21T03:30:40;14.35;;;4.97;;
78783;SDS011;68127;51.050;14.084;2023-04-21T03:33:06;16.08;;;4.63;;
78783;SDS011;68127;51.050;14.084;2023-04-21T03:35:31;10.50;;;4.53;;
78783;SDS011;68127;51.050;14.084;2023-04-21T03:37:58;7.75;;;4.38;;
78783;SDS011;68127;51.050;14.084;2023-04-21T03:40:23;7.70;;;4.05;;
78783;SDS011;68127;51.050;14.084;2023-04-21T03:42:48;12.82;;;4.65;;
78783;SDS011;68127;51.050;14.084;2023-04-21T03:45:13;12.85;;;4.45;;
78783;SDS011;68127;51.050;14.084;2023-04-21T03:47:39;14.45;;;4.97;;
78783;SDS011;68127;51.050;14.084;2023-04-21T03:50:04;7.93;;;4.07;;
78783;SDS011;68127;51.050;14.084;2023-04-21T03:52:30;14.18;;;5.25;;
78783;SDS011;68127;51.050;14.084;2023-04-21T03:54:56;12.05;;;4.75;;
78783;SDS011;68127;51.050;14.084;2023-04-21T03:57:21;11.82;;;4.10;;
78783;SDS011;68127;51.050;14.084;2023-04-21T03:59:46;8.95;;;4.32;;
78783;SDS011;68127;51.050;14.084;2023-04-21T04:02:12;9.95;;;4.45;;
78783;SDS011;68127;51.050;14.084;2023-04-21T04:04:37;11.65;;;4.38;;
78783;SDS011;68127;51.050;14.084;2023-04-21T04:07:02;11.10;;;4.50;;
78783;SDS011;68127;51.050;14.084;2023-04-21T04:09:27;8.68;;;4.40;;
78783;SDS011;68127;51.050;14.084;2023-04-21T04:11:53;10.57;;;4.75;;
78783;SDS011;68127;51.050;14.084;2023-04-21T04:14:18;12.63;;;4.90;;
78783;SDS011;68127;51.050;14.084;2023-04-21T04:16:43;11.35;;;4.40;;
78783;SDS011;68127;51.050;14.084;2023-04-21T04:19:09;11.15;;;4.55;;
78783;SDS011;68127;51.050;14.084;2023-04-21T04:21:34;9.23;;;4.30;;
78783;SDS011;68127;51.050;14.084;2023-04-21T04:24:00;11.18;;;4.57;;
78783;SDS011;68127;51.050;14.084;2023-04-21T04:26:26;11.82;;;4.97;;
78783;SDS011;68127;51.050;14.084;2023-04-21T04:28:52;8.60;;;4.50;;
78783;SDS011;68127;51.050;14.084;2023-04-21T04:31:17;10.60;;;4.50;;
78783;SDS011;68127;51.050;14.084;2023-04-21T04:33:43;11.88;;;4.72;;
78783;SDS011;68127;51.050;14.084;2023-04-21T04:36:08;8.75;;;4.50;;
78783;SDS011;68127;51.050;14.084;2023-04-21T04:38:35;8.73;;;3.83;;
78783;SDS011;68127;51.050;14.084;2023-04-21T04:41:01;10.38;;;4.60;;
78783;SDS011;68127;51.050;14.084;2023-04-21T04:43:27;12.13;;;4.43;;
78783;SDS011;68127;51.050;14.084;2023-04-21T04:45:52;8.55;;;4.57;;
78783;SDS011;68127;51.050;14.084;2023-04-21T04:48:18;13.20;;;5.43;;
78783;SDS011;68127;51.050;14.084;2023-04-21T04:50:43;9.15;;;4.38;;
78783;SDS011;68127;51.050;14.084;2023-04-21T04:53:09;11.52;;;4.28;;
78783;SDS011;68127;51.050;14.084;2023-04-21T04:55:34;10.52;;;4.85;;
78783;SDS011;68127;51.050;14.084;2023-04-21T04:57:59;8.60;;;4.57;;
78783;SDS011;68127;51.050;14.084;2023-04-21T05:00:25;9.75;;;4.38;;
78783;SDS011;68127;51.050;14.084;2023-04-21T05:02:52;10.10;;;4.45;;
78783;SDS011;68127;51.050;14.084;2023-04-21T05:05:17;9.10;;;3.95;;
78783;SDS011;68127;51.050;14.084;2023-04-21T05:07:43;11.43;;;4.35;;
78783;SDS011;68127;51.050;14.084;2023-04-21T05:10:08;12.70;;;4.72;;
78783;SDS011;68127;51.050;14.084;2023-04-21T05:12:33;8.95;;;4.05;;
78783;SDS011;68127;51.050;14.084;2023-04-21T05:14:58;7.05;;;4.10;;
78783;SDS011;68127;51.050;14.084;2023-04-21T05:17:24;13.15;;;4.50;;
78783;SDS011;68127;51.050;14.084;2023-04-21T05:20:10;11.73;;;4.20;;
78783;SDS011;68127;51.050;14.084;2023-04-21T05:22:36;9.18;;;4.90;;
78783;SDS011;68127;51.050;14.084;2023-04-21T05:25:02;12.10;;;4.90;;
78783;SDS011;68127;51.050;14.084;2023-04-21T05:27:27;11.98;;;4.90;;
78783;SDS011;68127;51.050;14.084;2023-04-21T05:29:53;12.02;;;5.47;;
78783;SDS011;68127;51.050;14.084;2023-04-21T05:32:19;10.52;;;4.93;;
78783;SDS011;68127;51.050;14.084;2023-04-21T05:34:44;17.88;;;5.28;;
78783;SDS011;68127;51.050;14.084;2023-04-21T05:37:09;16.20;;;5.60;;
78783;SDS011;68127;51.050;14.084;2023-04-21T05:39:36;8.70;;;4.45;;
78783;SDS011;68127;51.050;14.084;2023-04-21T05:42:01;11.95;;;4.70;;
78783;SDS011;68127;51.050;14.084;2023-04-21T05:44:26;10.73;;;4.97;;
78783;SDS011;68127;51.050;14.084;2023-04-21T05:46:51;8.80;;;4.85;;
78783;SDS011;68127;51.050;14.084;2023-04-21T05:49:17;8.18;;;4.60;;
78783;SDS011;68127;51.050;14.084;2023-04-21T05:51:42;11.32;;;5.10;;
78783;SDS011;68127;51.050;14.084;2023-04-21T05:54:07;9.38;;;4.50;;
78783;SDS011;68127;51.050;14.084;2023-04-21T05:56:33;13.48;;;4.80;;
78783;SDS011;68127;51.050;14.084;2023-04-21T05:58:58;9.43;;;5.35;;
78783;SDS011;68127;51.050;14.084;2023-04-21T06:01:23;12.93;;;5.40;;
78783;SDS011;68127;51.050;14.084;2023-04-21T06:03:48;14.02;;;5.30;;
78783;SDS011;68127;51.050;14.084;2023-04-21T06:06:14;10.88;;;4.97;;
78783;SDS011;68127;51.050;14.084;2023-04-21T06:08:39;11.07;;;5.30;;
78783;SDS011;68127;51.050;14.084;2023-04-21T06:11:04;14.77;;;5.93;;
78783;SDS011;68127;51.050;14.084;2023-04-21T06:13:30;14.57;;;5.97;;
78783;SDS011;68127;51.050;14.084;2023-04-21T06:15:55;10.55;;;5.55;;
78783;SDS011;68127;51.050;14.084;2023-04-21T06:18:20;11.15;;;5.47;;
78783;SDS011;68127;51.050;14.084;2023-04-21T06:20:49;12.63;;;5.80;;
78783;SDS011;68127;51.050;14.084;2023-04-21T06:23:20;14.52;;;5.70;;
78783;SDS011;68127;51.050;14.084;2023-04-21T06:25:46;15.27;;;5.55;;
78783;SDS011;68127;51.050;14.084;2023-04-21T06:28:11;12.80;;;5.70;;
78783;SDS011;68127;51.050;14.084;2023-04-21T06:30:37;17.00;;;5.68;;
78783;SDS011;68127;51.050;14.084;2023-04-21T06:33:02;10.18;;;5.57;;
78783;SDS011;68127;51.050;14.084;2023-04-21T06:35:28;18.83;;;5.45;;
78783;SDS011;68127;51.050;14.084;2023-04-21T06:37:54;13.30;;;4.90;;
78783;SDS011;68127;51.050;14.084;2023-04-21T06:40:19;10.80;;;4.75;;
78783;SDS011;68127;51.050;14.084;2023-04-21T06:42:45;13.52;;;5.40;;
78783;SDS011;68127;51.050;14.084;2023-04-21T06:45:10;11.90;;;5.22;;
78783;SDS011;68127;51.050;14.084;2023-04-21T06:47:35;11.85;;;5.40;;
78783;SDS011;68127;51.050;14.084;2023-04-21T06:50:00;9.35;;;5.00;;
78783;SDS011;68127;51.050;14.084;2023-04-21T06:52:26;8.20;;;4.78;;
78783;SDS011;68127;51.050;14.084;2023-04-21T06:54:51;11.18;;;5.00;;
78783;SDS011;68127;51.050;14.084;2023-04-21T06:57:16;11.05;;;4.47;;
78783;SDS011;68127;51.050;14.084;2023-04-21T06:59:42;9.88;;;4.82;;
78783;SDS011;68127;51.050;14.084;2023-04-21T07:02:07;9.07;;;4.57;;
78783;SDS011;68127;51.050;14.084;2023-04-21T07:04:33;7.78;;;4.93;;
78783;SDS011;68127;51.050;14.084;2023-04-21T07:06:58;10.90;;;4.75;;
78783;SDS011;68127;51.050;14.084;2023-04-21T07:09:23;8.95;;;4.80;;
78783;SDS011;68127;51.050;14.084;2023-04-21T07:11:48;9.80;;;4.05;;
78783;SDS011;68127;51.050;14.084;2023-04-21T07:14:14;6.70;;;4.20;;
78783;SDS011;68127;51.050;14.084;2023-04-21T07:16:39;24.08;;;5.60;;
78783;SDS011;68127;51.050;14.084;2023-04-21T07:19:05;8.00;;;4.50;;
78783;SDS011;68127;51.050;14.084;2023-04-21T07:21:30;11.63;;;5.63;;
78783;SDS011;68127;51.050;14.084;2023-04-21T07:23:56;6.43;;;3.88;;
78783;SDS011;68127;51.050;14.084;2023-04-21T07:26:22;7.35;;;4.20;;
78783;SDS011;68127;51.050;14.084;2023-04-21T07:28:47;9.85;;;4.00;;
78783;SDS011;68127;51.050;14.084;2023-04-21T07:31:17;8.80;;;4.53;;
78783;SDS011;68127;51.050;14.084;2023-04-21T07:33:45;11.82;;;4.93;;
78783;SDS011;68127;51.050;14.084;2023-04-21T07:36:11;8.45;;;4.57;;
78783;SDS011;68127;51.050;14.084;2023-04-21T07:38:36;10.43;;;4.35;;
78783;SDS011;68127;51.050;14.084;2023-04-21T07:41:02;9.13;;;4.28;;
78783;SDS011;68127;51.050;14.084;2023-04-21T07:43:27;10.43;;;4.13;;
78783;SDS011;68127;51.050;14.084;2023-04-21T07:45:54;9.30;;;4.22;;
78783;SDS011;68127;51.050;14.084;2023-04-21T07:48:20;11.93;;;4.25;;
78783;SDS011;68127;51.050;14.084;2023-04-21T07:50:45;10.60;;;4.13;;
78783;SDS011;68127;51.050;14.084;2023-04-21T07:53:10;9.73;;;4.35;;
78783;SDS011;68127;51.050;14.084;2023-04-21T07:55:35;7.22;;;4.30;;
78783;SDS011;68127;51.050;14.084;2023-04-21T07:58:02;9.68;;;4.72;;
78783;SDS011;68127;51.050;14.084;2023-04-21T08:00:30;8.38;;;4.30;;
78783;SDS011;68127;51.050;14.084;2023-04-21T08:02:55;7.43;;;4.30;;
78783;SDS011;68127;51.050;14.084;2023-04-21T08:05:21;8.40;;;3.97;;
78783;SDS011;68127;51.050;14.084;2023-04-21T08:07:46;8.45;;;3.72;;
78783;SDS011;68127;51.050;14.084;2023-04-21T08:10:11;8.13;;;4.20;;
78783;SDS011;68127;51.050;14.084;2023-04-21T08:12:37;7.80;;;3.85;;
78783;SDS011;68127;51.050;14.084;2023-04-21T08:15:02;7.28;;;4.03;;
78783;SDS011;68127;51.050;14.084;2023-04-21T08:17:31;8.95;;;4.13;;
78783;SDS011;68127;51.050;14.084;2023-04-21T08:19:56;8.73;;;3.50;;
78783;SDS011;68127;51.050;14.084;2023-04-21T08:22:21;7.15;;;3.92;;
78783;SDS011;68127;51.050;14.084;2023-04-21T08:24:47;6.65;;;3.72;;
78783;SDS011;68127;51.050;14.084;2023-04-21T08:27:13;10.18;;;3.70;;
78783;SDS011;68127;51.050;14.084;2023-04-21T08:29:38;7.20;;;3.95;;
78783;SDS011;68127;51.050;14.084;2023-04-21T08:32:03;7.68;;;3.42;;
78783;SDS011;68127;51.050;14.084;2023-04-21T08:34:29;8.20;;;3.80;;
78783;SDS011;68127;51.050;14.084;2023-04-21T08:36:54;6.53;;;3.45;;
78783;SDS011;68127;51.050;14.084;2023-04-21T08:39:19;9.05;;;3.70;;
78783;SDS011;68127;51.050;14.084;2023-04-21T08:41:44;7.18;;;3.90;;
78783;SDS011;68127;51.050;14.084;2023-04-21T08:44:11;9.15;;;3.88;;
78783;SDS011;68127;51.050;14.084;2023-04-21T08:46:36;6.47;;;3.53;;
78783;SDS011;68127;51.050;14.084;2023-04-21T08:49:02;7.68;;;3.58;;
78783;SDS011;68127;51.050;14.084;2023-04-21T08:51:28;6.93;;;3.25;;
78783;SDS011;68127;51.050;14.084;2023-04-21T08:53:54;8.15;;;3.70;;
78783;SDS011;68127;51.050;14.084;2023-04-21T08:56:20;8.88;;;3.80;;
78783;SDS011;68127;51.050;14.084;2023-04-21T08:58:45;9.05;;;3.72;;
78783;SDS011;68127;51.050;14.084;2023-04-21T09:01:10;13.18;;;3.47;;
78783;SDS011;68127;51.050;14.084;2023-04-21T09:03:36;8.00;;;3.70;;
78783;SDS011;68127;51.050;14.084;2023-04-21T09:06:02;8.52;;;3.90;;
78783;SDS011;68127;51.050;14.084;2023-04-21T09:08:29;7.03;;;3.10;;
78783;SDS011;68127;51.050;14.084;2023-04-21T09:10:55;7.97;;;3.25;;
78783;SDS011;68127;51.050;14.084;2023-04-21T09:13:27;10.00;;;3.42;;
78783;SDS011;68127;51.050;14.084;2023-04-21T09:15:54;9.30;;;3.40;;
78783;SDS011;68127;51.050;14.084;2023-04-21T09:18:20;7.72;;;3.42;;
78783;SDS011;68127;51.050;14.084;2023-04-21T09:21:04;8.30;;;4.03;;
78783;SDS011;68127;51.050;14.084;2023-04-21T09:23:41;8.52;;;3.50;;
78783;SDS011;68127;51.050;14.084;2023-04-21T09:26:10;8.82;;;3.45;;
78783;SDS011;68127;51.050;14.084;2023-04-21T09:28:36;10.85;;;3.55;;
78783;SDS011;68127;51.050;14.084;2023-04-21T09:31:04;6.55;;;3.20;;
78783;SDS011;68127;51.050;14.084;2023-04-21T09:33:37;10.15;;;3.58;;
78783;SDS011;68127;51.050;14.084;2023-04-21T09:36:02;6.05;;;2.92;;
78783;SDS011;68127;51.050;14.084;2023-04-21T09:38:29;6.32;;;3.35;;
78783;SDS011;68127;51.050;14.084;2023-04-21T09:40:55;8.48;;;3.40;;
78783;SDS011;68127;51.050;14.084;2023-04-21T09:43:21;8.38;;;3.08;;
78783;SDS011;68127;51.050;14.084;2023-04-21T09:45:47;7.68;;;3.17;;
78783;SDS011;68127;51.050;14.084;2023-04-21T09:48:13;6.72;;;3.10;;
78783;SDS011;68127;51.050;14.084;2023-04-21T09:50:41;8.43;;;2.83;;
78783;SDS011;68127;51.050;14.084;2023-04-21T09:53:07;6.95;;;3.10;;
78783;SDS011;68127;51.050;14.084;2023-04-21T09:55:36;6.93;;;3.00;;
78783;SDS011;68127;51.050;14.084;2023-04-21T09:58:02;11.52;;;4.28;;
78783;SDS011;68127;51.050;14.084;2023-04-21T10:00:30;6.32;;;2.92;;
78783;SDS011;68127;51.050;14.084;2023-04-21T10:02:59;13.48;;;4.10;;
78783;SDS011;68127;51.050;14.084;2023-04-21T10:07:54;11.20;;;3.97;;
78783;SDS011;68127;51.050;14.084;2023-04-21T10:10:23;5.18;;;3.00;;
78783;SDS011;68127;51.050;14.084;2023-04-21T10:12:50;7.03;;;3.10;;
78783;SDS011;68127;51.050;14.084;2023-04-21T10:15:32;12.20;;;3.30;;
78783;SDS011;68127;51.050;14.084;2023-04-21T10:18:17;8.27;;;3.70;;
78783;SDS011;68127;51.050;14.084;2023-04-21T10:20:50;8.95;;;3.35;;
78783;SDS011;68127;51.050;14.084;2023-04-21T10:23:38;9.98;;;3.10;;
78783;SDS011;68127;51.050;14.084;2023-04-21T10:26:25;9.45;;;3.28;;
78783;SDS011;68127;51.050;14.084;2023-04-21T10:28:53;10.52;;;3.40;;
78783;SDS011;68127;51.050;14.084;2023-04-21T10:31:21;8.38;;;3.60;;
78783;SDS011;68127;51.050;14.084;2023-04-21T10:36:42;7.28;;;3.47;;
78783;SDS011;68127;51.050;14.084;2023-04-21T10:39:25;8.50;;;3.45;;
78783;SDS011;68127;51.050;14.084;2023-04-21T10:41:54;9.38;;;3.00;;
78783;SDS011;68127;51.050;14.084;2023-04-21T10:44:20;7.30;;;3.45;;
78783;SDS011;68127;51.050;14.084;2023-04-21T10:46:47;8.55;;;3.25;;
78783;SDS011;68127;51.050;14.084;2023-04-21T10:54:21;4.97;;;2.92;;
78783;SDS011;68127;51.050;14.084;2023-04-21T10:56:47;6.40;;;2.83;;
78783;SDS011;68127;51.050;14.084;2023-04-21T10:59:14;5.43;;;2.70;;
78783;SDS011;68127;51.050;14.084;2023-04-21T11:01:39;6.78;;;3.20;;
78783;SDS011;68127;51.050;14.084;2023-04-21T11:04:06;9.02;;;2.97;;
78783;SDS011;68127;51.050;14.084;2023-04-21T11:06:37;8.23;;;2.35;;
78783;SDS011;68127;51.050;14.084;2023-04-21T11:09:03;9.52;;;2.70;;
78783;SDS011;68127;51.050;14.084;2023-04-21T11:11:28;8.02;;;2.63;;
78783;SDS011;68127;51.050;14.084;2023-04-21T11:13:53;9.00;;;2.83;;
78783;SDS011;68127;51.050;14.084;2023-04-21T11:16:19;8.40;;;2.63;;
78783;SDS011;68127;51.050;14.084;2023-04-21T11:18:44;6.15;;;2.40;;
78783;SDS011;68127;51.050;14.084;2023-04-21T11:21:13;7.25;;;2.70;;
78783;SDS011;68127;51.050;14.084;2023-04-21T11:23:54;7.15;;;2.55;;
78783;SDS011;68127;51.050;14.084;2023-04-21T11:26:34;7.60;;;2.60;;
78783;SDS011;68127;51.050;14.084;2023-04-21T11:29:05;13.95;;;2.90;;
78783;SDS011;68127;51.050;14.084;2023-04-21T11:31:32;6.38;;;2.58;;
78783;SDS011;68127;51.050;14.084;2023-04-21T11:33:58;6.93;;;2.45;;
78783;SDS011;68127;51.050;14.084;2023-04-21T11:36:24;9.90;;;2.83;;
78783;SDS011;68127;51.050;14.084;2023-04-21T11:38:49;5.50;;;2.47;;
78783;SDS011;68127;51.050;14.084;2023-04-21T11:41:24;6.18;;;3.00;;
78783;SDS011;68127;51.050;14.084;2023-04-21T11:43:49;6.25;;;2.80;;
78783;SDS011;68127;51.050;14.084;2023-04-21T11:46:16;6.10;;;2.72;;
78783;SDS011;68127;51.050;14.084;2023-04-21T11:48:43;5.63;;;2.50;;
78783;SDS011;68127;51.050;14.084;2023-04-21T11:51:15;10.48;;;3.10;;
78783;SDS011;68127;51.050;14.084;2023-04-21T11:53:42;6.47;;;2.80;;
78783;SDS011;68127;51.050;14.084;2023-04-21T11:56:08;7.35;;;3.05;;
78783;SDS011;68127;51.050;14.084;2023-04-21T11:58:34;7.45;;;2.83;;
78783;SDS011;68127;51.050;14.084;2023-04-21T12:01:05;5.93;;;2.65;;
78783;SDS011;68127;51.050;14.084;2023-04-21T12:03:31;6.13;;;2.28;;
78783;SDS011;68127;51.050;14.084;2023-04-21T12:05:57;6.13;;;2.75;;
78783;SDS011;68127;51.050;14.084;2023-04-21T12:08:22;5.45;;;2.60;;
78783;SDS011;68127;51.050;14.084;2023-04-21T12:10:47;7.43;;;2.88;;
78783;SDS011;68127;51.050;14.084;2023-04-21T12:13:17;9.48;;;2.50;;
78783;SDS011;68127;51.050;14.084;2023-04-21T12:15:46;7.00;;;2.70;;
78783;SDS011;68127;51.050;14.084;2023-04-21T12:18:12;6.50;;;2.80;;
78783;SDS011;68127;51.050;14.084;2023-04-21T12:20:38;7.75;;;2.88;;
78783;SDS011;68127;51.050;14.084;2023-04-21T12:23:13;6.65;;;2.95;;
78783;SDS011;68127;51.050;14.084;2023-04-21T12:25:38;6.68;;;2.83;;
78783;SDS011;68127;51.050;14.084;2023-04-21T12:28:08;8.48;;;3.58;;
78783;SDS011;68127;51.050;14.084;2023-04-21T12:30:33;7.70;;;3.13;;
78783;SDS011;68127;51.050;14.084;2023-04-21T12:32:59;7.45;;;3.50;;
78783;SDS011;68127;51.050;14.084;2023-04-21T12:35:24;6.07;;;3.20;;
78783;SDS011;68127;51.050;14.084;2023-04-21T12:37:50;9.07;;;3.92;;
78783;SDS011;68127;51.050;14.084;2023-04-21T12:40:15;12.07;;;3.83;;
78783;SDS011;68127;51.050;14.084;2023-04-21T12:42:40;6.05;;;3.17;;
78783;SDS011;68127;51.050;14.084;2023-04-21T12:45:06;9.52;;;3.10;;
78783;SDS011;68127;51.050;14.084;2023-04-21T12:47:31;8.48;;;3.80;;
78783;SDS011;68127;51.050;14.084;2023-04-21T12:49:56;7.10;;;3.85;;
78783;SDS011;68127;51.050;14.084;2023-04-21T12:52:22;5.60;;;3.13;;
78783;SDS011;68127;51.050;14.084;2023-04-21T12:54:47;7.95;;;3.65;;
78783;SDS011;68127;51.050;14.084;2023-04-21T12:57:12;9.80;;;3.45;;
78783;SDS011;68127;51.050;14.084;2023-04-21T12:59:39;10.73;;;3.70;;
78783;SDS011;68127;51.050;14.084;2023-04-21T13:02:05;7.35;;;3.38;;
78783;SDS011;68127;51.050;14.084;2023-04-21T13:04:30;8.45;;;3.20;;
78783;SDS011;68127;51.050;14.084;2023-04-21T13:06:56;6.82;;;3.00;;
78783;SDS011;68127;51.050;14.084;2023-04-21T13:09:21;6.82;;;2.88;;
78783;SDS011;68127;51.050;14.084;2023-04-21T13:11:46;8.02;;;3.17;;
78783;SDS011;68127;51.050;14.084;2023-04-21T13:14:11;5.70;;;3.05;;
78783;SDS011;68127;51.050;14.084;2023-04-21T13:16:37;7.70;;;3.40;;
78783;SDS011;68127;51.050;14.084;2023-04-21T13:19:02;7.32;;;3.67;;
78783;SDS011;68127;51.050;14.084;2023-04-21T13:21:28;9.50;;;3.40;;
78783;SDS011;68127;51.050;14.084;2023-04-21T13:23:53;8.25;;;3.25;;
78783;SDS011;68127;51.050;14.084;2023-04-21T13:26:20;6.30;;;3.03;;
78783;SDS011;68127;51.050;14.084;2023-04-21T13:28:45;5.60;;;3.13;;
78783;SDS011;68127;51.050;14.084;2023-04-21T13:31:10;7.75;;;3.63;;
78783;SDS011;68127;51.050;14.084;2023-04-21T13:33:35;5.72;;;2.85;;
78783;SDS011;68127;51.050;14.084;2023-04-21T13:36:01;8.13;;;3.30;;
78783;SDS011;68127;51.050;14.084;2023-04-21T13:38:27;7.57;;;3.28;;
78783;SDS011;68127;51.050;14.084;2023-04-21T13:40:52;7.10;;;3.22;;
78783;SDS011;68127;51.050;14.084;2023-04-21T13:43:18;6.63;;;3.10;;
78783;SDS011;68127;51.050;14.084;2023-04-21T13:45:43;7.00;;;3.17;;
78783;SDS011;68127;51.050;14.084;2023-04-21T13:48:10;5.90;;;2.60;;
78783;SDS011;68127;51.050;14.084;2023-04-21T13:50:35;6.97;;;3.13;;
78783;SDS011;68127;51.050;14.084;2023-04-21T13:53:01;7.97;;;3.10;;
78783;SDS011;68127;51.050;14.084;2023-04-21T13:55:26;8.38;;;3.33;;
78783;SDS011;68127;51.050;14.084;2023-04-21T13:57:51;6.47;;;2.80;;
78783;SDS011;68127;51.050;14.084;2023-04-21T14:00:16;8.65;;;3.30;;
78783;SDS011;68127;51.050;14.084;2023-04-21T14:02:42;6.78;;;3.33;;
78783;SDS011;68127;51.050;14.084;2023-04-21T14:05:07;6.97;;;3.10;;
78783;SDS011;68127;51.050;14.084;2023-04-21T14:07:33;6.10;;;3.08;;
78783;SDS011;68127;51.050;14.084;2023-04-21T14:09:59;8.27;;;4.60;;
78783;SDS011;68127;51.050;14.084;2023-04-21T14:12:25;7.15;;;3.63;;
78783;SDS011;68127;51.050;14.084;2023-04-21T14:14:50;6.75;;;3.58;;
78783;SDS011;68127;51.050;14.084;2023-04-21T14:17:15;6.30;;;3.25;;
78783;SDS011;68127;51.050;14.084;2023-04-21T14:19:41;6.80;;;3.80;;
78783;SDS011;68127;51.050;14.084;2023-04-21T14:22:06;8.50;;;3.75;;
78783;SDS011;68127;51.050;14.084;2023-04-21T14:24:31;8.45;;;3.88;;
78783;SDS011;68127;51.050;14.084;2023-04-21T14:26:57;7.57;;;3.70;;
78783;SDS011;68127;51.050;14.084;2023-04-21T14:29:23;6.28;;;3.75;;
78783;SDS011;68127;51.050;14.084;2023-04-21T14:31:48;10.50;;;4.70;;
78783;SDS011;68127;51.050;14.084;2023-04-21T14:34:14;8.68;;;4.10;;